Time;durP1;ratioP1;P1;durP2;ratioP2;P2;SDS_P1;SDS_P2;PMS_P1;PMS_P2;Temp;Humidity;BMP_temperature;BMP_pressure;BME280_temperature;BME280_humidity;BME280_pressure;Samples;Min_cycle;Max_cycle;Signal;HPM_P1;HPM_P2
2024/03/12 00:01:34;;;;;;;15.77;10.80;;;;;;;;;;7796133;22;24453;-85
2024/03/12 00:04:37;;;;;;;15.45;10.43;;;;;;;;;;7754487;22;24627;-85
2024/03/12 00:07:38;;;;;;;14.43;10.63;;;;;;;;;;7795984;22;24390;-85
2024/03/12 00:10:40;;;;;;;17.05;11.27;;;;;;;;;;7796749;22;24581;-86
2024/03/12 00:13:43;;;;;;;17.88;11.07;;;;;;;;;;7796448;22;24391;-86
2024/03/12 00:16:44;;;;;;;17.15;11.73;;;;;;;;;;7796104;22;24379;-86
2024/03/12 00:19:48;;;;;;;17.13;12.00;;;;;;;;;;7796041;22;24378;-86
2024/03/12 00:22:50;;;;;;;19.20;12.68;;;;;;;;;;7796311;22;24447;-85
2024/03/12 00:25:51;;;;;;;19.55;13.50;;;;;;;;;;7795895;22;24614;-84
2024/03/12 00:28:55;;;;;;;16.23;11.73;;;;;;;;;;7797007;22;24393;-85
2024/03/12 00:31:57;;;;;;;17.80;13.23;;;;;;;;;;7795399;22;24672;-86
2024/03/12 00:34:59;;;;;;;20.15;13.38;;;;;;;;;;7799826;22;24373;-91
2024/03/12 00:38:01;;;;;;;31.80;19.20;;;;;;;;;;7803476;22;24358;-92
2024/03/12 00:41:03;;;;;;;24.58;16.58;;;;;;;;;;7802579;22;24395;-91
2024/03/12 00:44:06;;;;;;;26.95;18.40;;;;;;;;;;7801293;22;24376;-90
2024/03/12 00:47:08;;;;;;;60.40;33.53;;;;;;;;;;7800663;22;24374;-90
2024/03/12 00:50:11;;;;;;;33.33;21.58;;;;;;;;;;7799595;22;24370;-91
2024/03/12 00:53:13;;;;;;;63.28;37.90;;;;;;;;;;7800230;22;24408;-84
2024/03/12 00:56:15;;;;;;;24.23;16.90;;;;;;;;;;7793399;22;24373;-86
2024/03/12 00:59:18;;;;;;;19.38;13.27;;;;;;;;;;7789662;22;24380;-86
2024/03/12 01:02:20;;;;;;;21.20;14.40;;;;;;;;;;7789672;22;24381;-85
2024/03/12 01:05:24;;;;;;;22.27;15.40;;;;;;;;;;7790031;22;24386;-86
2024/03/12 01:08:26;;;;;;;19.20;13.98;;;;;;;;;;7789904;22;24576;-86
2024/03/12 01:11:28;;;;;;;21.03;14.13;;;;;;;;;;7790561;22;24751;-86
2024/03/12 01:14:31;;;;;;;19.70;15.02;;;;;;;;;;7789539;22;24374;-85
2024/03/12 01:17:33;;;;;;;20.92;15.50;;;;;;;;;;7789020;22;24378;-86
2024/03/12 01:20:35;;;;;;;21.90;15.40;;;;;;;;;;7794405;22;24378;-86
2024/03/12 01:23:36;;;;;;;21.48;15.68;;;;;;;;;;7789834;22;24374;-87
2024/03/12 01:26:38;;;;;;;22.77;16.23;;;;;;;;;;7790271;22;24607;-87
2024/03/12 01:29:43;;;;;;;23.00;17.15;;;;;;;;;;7790377;22;24420;-87
2024/03/12 01:32:45;;;;;;;23.17;16.87;;;;;;;;;;7789941;22;24385;-87
2024/03/12 01:35:47;;;;;;;26.23;17.70;;;;;;;;;;7789558;22;24370;-87
2024/03/12 01:38:49;;;;;;;23.88;17.40;;;;;;;;;;7796215;22;24366;-86
2024/03/12 01:41:51;;;;;;;22.75;17.85;;;;;;;;;;7794298;22;24402;-86
2024/03/12 01:44:55;;;;;;;24.80;18.38;;;;;;;;;;7795090;22;24370;-86
2024/03/12 01:47:57;;;;;;;26.02;18.25;;;;;;;;;;7794006;22;24421;-86
2024/03/12 01:50:59;;;;;;;28.05;18.33;;;;;;;;;;7794929;22;24382;-86
2024/03/12 01:54:03;;;;;;;24.92;18.40;;;;;;;;;;7795350;22;24397;-86
2024/03/12 01:57:06;;;;;;;25.05;18.25;;;;;;;;;;7792494;22;24779;-86
2024/03/12 02:00:13;;;;;;;25.80;17.30;;;;;;;;;;7789610;22;24457;-86
2024/03/12 02:03:14;;;;;;;25.48;17.58;;;;;;;;;;7791530;22;25027;-88
2024/03/12 02:06:16;;;;;;;27.30;18.60;;;;;;;;;;7788929;22;24386;-86
2024/03/12 02:09:20;;;;;;;24.85;17.17;;;;;;;;;;7793096;22;24416;-86
2024/03/12 02:12:22;;;;;;;24.23;17.52;;;;;;;;;;7794567;22;24374;-86
2024/03/12 02:15:25;;;;;;;25.85;18.15;;;;;;;;;;7794748;22;24474;-85
2024/03/12 02:18:27;;;;;;;24.03;17.87;;;;;;;;;;7794269;22;24378;-86
2024/03/12 02:21:29;;;;;;;24.15;18.05;;;;;;;;;;7789963;22;24432;-87
2024/03/12 02:24:33;;;;;;;24.50;18.08;;;;;;;;;;7790583;22;24786;-87
2024/03/12 02:27:35;;;;;;;24.63;18.40;;;;;;;;;;7788821;22;24428;-86
2024/03/12 02:30:36;;;;;;;23.73;17.13;;;;;;;;;;7789459;22;24440;-84
2024/03/12 02:33:38;;;;;;;22.77;17.40;;;;;;;;;;7788713;22;24748;-85
2024/03/12 02:36:40;;;;;;;26.23;18.08;;;;;;;;;;7794151;22;24379;-85
2024/03/12 02:39:43;;;;;;;26.45;17.65;;;;;;;;;;7794897;22;24390;-85
2024/03/12 02:42:45;;;;;;;23.10;17.23;;;;;;;;;;7795055;22;24706;-85
2024/03/12 02:45:47;;;;;;;25.77;17.92;;;;;;;;;;7793813;22;24680;-85
2024/03/12 02:48:51;;;;;;;24.77;18.08;;;;;;;;;;7795426;22;24362;-86
2024/03/12 02:51:52;;;;;;;28.02;17.90;;;;;;;;;;7794314;22;24382;-86
2024/03/12 02:54:55;;;;;;;23.95;17.50;;;;;;;;;;7794813;22;25046;-85
2024/03/12 02:57:57;;;;;;;25.92;17.05;;;;;;;;;;7792999;22;24380;-86
2024/03/12 03:00:59;;;;;;;24.48;16.48;;;;;;;;;;7794179;22;24374;-86
2024/03/12 03:04:00;;;;;;;22.70;16.07;;;;;;;;;;7794558;22;24545;-85
2024/03/12 03:07:03;;;;;;;23.65;16.77;;;;;;;;;;7795282;22;24581;-86
2024/03/12 03:10:07;;;;;;;22.75;16.00;;;;;;;;;;7795442;22;24378;-85
2024/03/12 03:13:09;;;;;;;23.08;15.82;;;;;;;;;;7794440;22;24456;-85
2024/03/12 03:16:10;;;;;;;22.17;15.65;;;;;;;;;;7794155;22;24379;-85
2024/03/12 03:19:12;;;;;;;21.33;16.02;;;;;;;;;;7795964;22;24472;-85
2024/03/12 03:22:14;;;;;;;20.93;15.13;;;;;;;;;;7795231;22;24437;-85
2024/03/12 03:25:17;;;;;;;21.13;14.73;;;;;;;;;;7795320;22;24531;-85
2024/03/12 03:28:19;;;;;;;19.42;13.63;;;;;;;;;;7795148;22;24386;-84
2024/03/12 03:31:21;;;;;;;20.02;13.93;;;;;;;;;;7794455;22;24405;-84
2024/03/12 03:34:23;;;;;;;21.33;13.70;;;;;;;;;;7794785;22;24378;-84
2024/03/12 03:37:30;;;;;;;17.60;13.10;;;;;;;;;;7793446;22;24600;-85
2024/03/12 03:40:33;;;;;;;16.85;11.98;;;;;;;;;;7795065;22;24386;-85
2024/03/12 03:43:35;;;;;;;19.93;13.47;;;;;;;;;;7794625;22;24751;-86
2024/03/12 03:46:36;;;;;;;17.37;12.20;;;;;;;;;;7794656;22;24386;-85
2024/03/12 03:49:38;;;;;;;17.77;12.57;;;;;;;;;;7793901;22;24370;-84
2024/03/12 03:52:40;;;;;;;20.45;13.20;;;;;;;;;;7794300;22;24378;-85
2024/03/12 03:55:43;;;;;;;19.40;13.43;;;;;;;;;;7794006;22;24382;-85
2024/03/12 03:58:45;;;;;;;20.75;13.63;;;;;;;;;;7793161;22;24416;-84
2024/03/12 04:01:47;;;;;;;19.20;13.35;;;;;;;;;;7794309;22;24743;-85
2024/03/12 04:04:49;;;;;;;18.83;13.25;;;;;;;;;;7792909;22;24374;-85
2024/03/12 04:07:50;;;;;;;19.53;13.77;;;;;;;;;;7793798;22;24851;-85
2024/03/12 04:10:53;;;;;;;19.02;13.40;;;;;;;;;;7793884;22;24424;-85
2024/03/12 04:13:55;;;;;;;18.80;13.73;;;;;;;;;;7794061;22;24416;-84
2024/03/12 04:16:57;;;;;;;17.10;11.88;;;;;;;;;;7793676;22;24404;-84
2024/03/12 04:19:58;;;;;;;16.98;10.93;;;;;;;;;;7792937;22;24354;-84
2024/03/12 04:23:01;;;;;;;15.63;10.55;;;;;;;;;;7794005;22;24350;-85
2024/03/12 04:26:04;;;;;;;15.00;10.20;;;;;;;;;;7793987;22;24791;-85
2024/03/12 04:29:06;;;;;;;13.57;9.95;;;;;;;;;;7795712;22;24423;-84
2024/03/12 04:32:09;;;;;;;15.07;9.23;;;;;;;;;;7794936;22;24362;-84
2024/03/12 04:35:12;;;;;;;12.48;9.05;;;;;;;;;;7796234;22;24569;-84
2024/03/12 04:38:14;;;;;;;14.07;8.90;;;;;;;;;;7795798;22;24367;-84
2024/03/12 04:41:17;;;;;;;12.80;8.65;;;;;;;;;;7795797;22;24367;-84
2024/03/12 04:44:19;;;;;;;13.70;8.97;;;;;;;;;;7795163;22;24490;-85
2024/03/12 04:47:21;;;;;;;14.25;8.77;;;;;;;;;;7795074;22;24487;-85
2024/03/12 04:50:23;;;;;;;12.48;8.20;;;;;;;;;;7794798;22;24463;-84
2024/03/12 04:53:25;;;;;;;11.68;8.02;;;;;;;;;;7796070;22;24454;-84
2024/03/12 04:56:28;;;;;;;10.97;7.93;;;;;;;;;;7795855;22;24482;-84
2024/03/12 04:59:29;;;;;;;11.38;7.55;;;;;;;;;;7795628;22;24416;-85
2024/03/12 05:02:31;;;;;;;10.68;7.30;;;;;;;;;;7794461;22;24802;-85
2024/03/12 05:05:32;;;;;;;11.55;7.70;;;;;;;;;;7794805;22;24989;-84
2024/03/12 05:08:34;;;;;;;9.95;6.70;;;;;;;;;;7795275;22;24476;-84
2024/03/12 05:11:37;;;;;;;9.30;6.73;;;;;;;;;;7795596;22;24777;-84
2024/03/12 05:14:39;;;;;;;9.00;6.57;;;;;;;;;;7795670;22;24374;-84
2024/03/12 05:17:40;;;;;;;9.88;6.40;;;;;;;;;;7795875;22;24432;-85
2024/03/12 05:20:42;;;;;;;7.72;5.18;;;;;;;;;;7795464;22;24386;-84
2024/03/12 05:23:44;;;;;;;7.85;5.28;;;;;;;;;;7796155;22;24401;-84
2024/03/12 05:26:49;;;;;;;7.88;5.40;;;;;;;;;;7795445;22;24779;-84
2024/03/12 05:29:54;;;;;;;7.80;5.50;;;;;;;;;;7794945;22;24378;-84
2024/03/12 05:32:56;;;;;;;11.07;5.95;;;;;;;;;;7795573;22;24473;-85
2024/03/12 05:35:57;;;;;;;7.73;5.50;;;;;;;;;;7794768;22;24457;-81
2024/03/12 05:39:04;;;;;;;10.23;5.80;;;;;;;;;;7794402;22;24456;-80
2024/03/12 05:48:49;;;;;;;8.83;5.47;;;;;;;;;;7794176;22;24374;-80
2024/03/12 05:51:52;;;;;;;8.68;5.30;;;;;;;;;;7793735;22;24781;-81
2024/03/12 05:54:54;;;;;;;9.95;5.38;;;;;;;;;;7794283;22;24489;-80
2024/03/12 05:57:57;;;;;;;8.80;5.35;;;;;;;;;;7794553;22;24374;-80
2024/03/12 06:00:59;;;;;;;8.38;4.93;;;;;;;;;;7794324;22;24378;-81
2024/03/12 06:04:02;;;;;;;7.53;5.00;;;;;;;;;;7793829;22;24628;-81
2024/03/12 06:07:03;;;;;;;7.78;5.50;;;;;;;;;;7795319;22;24409;-81
2024/03/12 06:10:07;;;;;;;8.63;5.13;;;;;;;;;;7794029;22;24382;-81
2024/03/12 06:13:12;;;;;;;6.57;4.50;;;;;;;;;;7794765;22;24469;-80
2024/03/12 06:16:13;;;;;;;7.70;4.65;;;;;;;;;;7794204;22;24764;-81
2024/03/12 06:19:15;;;;;;;7.32;4.22;;;;;;;;;;7793990;22;24420;-81
2024/03/12 06:22:17;;;;;;;7.37;4.33;;;;;;;;;;7794082;22;24489;-82
2024/03/12 06:25:18;;;;;;;8.05;4.22;;;;;;;;;;7793621;22;24382;-81
2024/03/12 06:28:21;;;;;;;8.05;3.85;;;;;;;;;;7794696;22;24431;-81
2024/03/12 06:31:23;;;;;;;6.28;4.03;;;;;;;;;;7794104;22;24424;-82
2024/03/12 06:34:27;;;;;;;7.22;4.20;;;;;;;;;;7793377;22;24465;-81
2024/03/12 06:37:28;;;;;;;6.95;3.95;;;;;;;;;;7793860;22;24378;-81
2024/03/12 06:40:30;;;;;;;8.70;3.70;;;;;;;;;;7794416;22;24384;-81
2024/03/12 06:43:33;;;;;;;5.63;3.83;;;;;;;;;;7794585;22;24420;-85
2024/03/12 06:46:35;;;;;;;5.15;3.25;;;;;;;;;;7795032;22;24419;-85
2024/03/12 06:49:38;;;;;;;4.50;3.40;;;;;;;;;;7798485;22;24386;-85
2024/03/12 06:52:40;;;;;;;6.13;3.58;;;;;;;;;;7796890;22;24376;-85
2024/03/12 06:55:41;;;;;;;6.25;3.50;;;;;;;;;;7797060;22;24377;-86
2024/03/12 06:58:45;;;;;;;5.47;3.17;;;;;;;;;;7797671;22;24416;-86
2024/03/12 07:01:51;;;;;;;6.50;3.20;;;;;;;;;;7795091;22;24457;-86
2024/03/12 07:04:55;;;;;;;6.43;3.50;;;;;;;;;;7794827;22;24389;-87
2024/03/12 07:07:57;;;;;;;7.85;3.00;;;;;;;;;;7794643;22;24445;-87
2024/03/12 07:10:58;;;;;;;5.17;2.87;;;;;;;;;;7794393;22;24404;-87
2024/03/12 07:14:12;;;;;;;5.63;3.60;;;;;;;;;;7796014;22;24404;-87
2024/03/12 07:17:14;;;;;;;6.40;3.03;;;;;;;;;;7794052;22;24422;-86
2024/03/12 07:20:16;;;;;;;5.53;3.35;;;;;;;;;;7794933;22;24374;-88
2024/03/12 07:23:17;;;;;;;4.25;3.03;;;;;;;;;;7794399;22;24386;-87
2024/03/12 07:26:20;;;;;;;6.53;3.28;;;;;;;;;;7792807;22;24370;-87
2024/03/12 07:29:23;;;;;;;4.72;3.13;;;;;;;;;;7793588;22;24797;-88
2024/03/12 07:32:25;;;;;;;5.97;2.80;;;;;;;;;;7794127;22;24405;-87
2024/03/12 07:35:28;;;;;;;7.25;2.90;;;;;;;;;;7794266;22;24378;-87
2024/03/12 07:38:29;;;;;;;3.88;2.35;;;;;;;;;;7794650;22;24362;-87
2024/03/12 07:41:31;;;;;;;5.00;2.63;;;;;;;;;;7793951;22;24419;-88
2024/03/12 07:44:35;;;;;;;3.58;2.40;;;;;;;;;;7794903;22;24377;-87
2024/03/12 07:47:39;;;;;;;6.93;2.38;;;;;;;;;;7794560;22;24436;-88
2024/03/12 07:50:41;;;;;;;4.45;2.60;;;;;;;;;;7794274;22;24374;-87
2024/03/12 07:53:44;;;;;;;3.50;2.33;;;;;;;;;;7794749;22;24378;-86
2024/03/12 07:56:49;;;;;;;4.72;2.30;;;;;;;;;;7794376;22;24424;-86
2024/03/12 07:59:52;;;;;;;6.13;2.87;;;;;;;;;;7794387;22;24473;-86
2024/03/12 08:02:55;;;;;;;5.03;2.17;;;;;;;;;;7796824;22;24406;-86
2024/03/12 08:05:57;;;;;;;4.15;2.38;;;;;;;;;;7796841;22;24919;-86
2024/03/12 08:08:58;;;;;;;5.07;2.60;;;;;;;;;;7796250;22;24772;-86
2024/03/12 08:12:00;;;;;;;3.58;2.38;;;;;;;;;;7797173;22;24431;-87
2024/03/12 08:15:03;;;;;;;4.50;2.70;;;;;;;;;;7796750;22;24370;-86
2024/03/12 08:18:05;;;;;;;7.10;3.77;;;;;;;;;;7796593;22;24447;-86
2024/03/12 08:21:08;;;;;;;8.87;4.20;;;;;;;;;;7796933;22;24420;-87
2024/03/12 08:24:10;;;;;;;8.05;3.85;;;;;;;;;;7796670;22;24377;-86
2024/03/12 08:27:12;;;;;;;8.20;4.15;;;;;;;;;;7796499;22;24477;-87
2024/03/12 08:30:16;;;;;;;7.43;3.90;;;;;;;;;;7796644;22;24446;-86
2024/03/12 08:33:18;;;;;;;10.67;4.63;;;;;;;;;;7796393;22;24413;-86
2024/03/12 08:36:21;;;;;;;9.27;4.10;;;;;;;;;;7795708;22;24428;-86
2024/03/12 08:39:27;;;;;;;9.48;4.45;;;;;;;;;;7796647;22;24401;-86
2024/03/12 08:42:30;;;;;;;9.00;4.73;;;;;;;;;;7796476;22;24466;-86
2024/03/12 08:45:35;;;;;;;7.70;4.55;;;;;;;;;;7796988;22;24423;-86
2024/03/12 08:48:37;;;;;;;7.28;4.60;;;;;;;;;;7796975;22;24447;-87
2024/03/12 08:51:39;;;;;;;6.18;4.40;;;;;;;;;;7795855;22;24382;-86
2024/03/12 08:54:41;;;;;;;10.38;4.35;;;;;;;;;;7796684;22;24383;-87
2024/03/12 08:57:43;;;;;;;8.25;4.40;;;;;;;;;;7796033;22;24379;-87
2024/03/12 09:00:46;;;;;;;8.98;4.18;;;;;;;;;;7796104;22;24378;-87
2024/03/12 09:03:47;;;;;;;8.23;4.13;;;;;;;;;;7796385;22;24379;-87
2024/03/12 09:06:49;;;;;;;6.57;3.70;;;;;;;;;;7796742;22;24424;-87
2024/03/12 09:09:50;;;;;;;8.88;4.10;;;;;;;;;;7796626;22;24374;-86
2024/03/12 09:12:52;;;;;;;6.63;4.00;;;;;;;;;;7796661;22;24822;-87
2024/03/12 09:15:55;;;;;;;9.25;4.22;;;;;;;;;;7796207;22;24436;-86
2024/03/12 09:18:56;;;;;;;5.93;3.50;;;;;;;;;;7796082;22;24405;-87
2024/03/12 09:21:59;;;;;;;5.65;3.30;;;;;;;;;;7796450;22;24455;-87
2024/03/12 09:25:01;;;;;;;9.30;3.80;;;;;;;;;;7796775;22;24370;-86
2024/03/12 09:28:04;;;;;;;7.73;3.30;;;;;;;;;;7795961;22;24705;-87
2024/03/12 09:31:08;;;;;;;6.65;3.20;;;;;;;;;;7796468;22;24379;-87
2024/03/12 09:34:12;;;;;;;7.78;3.60;;;;;;;;;;7795802;22;24398;-87
2024/03/12 09:37:15;;;;;;;7.13;3.78;;;;;;;;;;7796242;22;24385;-87
2024/03/12 09:40:17;;;;;;;6.85;3.58;;;;;;;;;;7796094;22;24428;-87
2024/03/12 09:43:20;;;;;;;5.13;3.87;;;;;;;;;;7796194;22;24494;-87
2024/03/12 09:46:23;;;;;;;5.60;3.70;;;;;;;;;;7796252;22;24387;-87
2024/03/12 09:49:25;;;;;;;6.47;4.00;;;;;;;;;;7795982;22;24772;-87
2024/03/12 09:52:27;;;;;;;8.77;3.90;;;;;;;;;;7796353;22;24428;-87
2024/03/12 09:55:29;;;;;;;8.40;3.90;;;;;;;;;;7795634;22;24382;-87
2024/03/12 09:58:31;;;;;;;9.15;4.07;;;;;;;;;;7795749;22;24362;-87
2024/03/12 10:01:33;;;;;;;6.97;3.70;;;;;;;;;;7795639;22;24628;-86
2024/03/12 10:04:35;;;;;;;6.97;4.00;;;;;;;;;;7795899;22;24588;-87
2024/03/12 10:07:37;;;;;;;7.63;4.00;;;;;;;;;;7796890;22;24435;-87
2024/03/12 10:10:40;;;;;;;6.80;3.40;;;;;;;;;;7795387;22;24385;-86
2024/03/12 10:13:42;;;;;;;6.78;3.53;;;;;;;;;;7795440;22;24386;-82
2024/03/12 10:16:45;;;;;;;6.50;3.33;;;;;;;;;;7795914;22;24382;-83
2024/03/12 10:19:49;;;;;;;6.63;3.40;;;;;;;;;;7795029;22;24748;-83
2024/03/12 10:23:04;;;;;;;5.15;3.00;;;;;;;;;;7794210;22;25333;-82
2024/03/12 10:26:11;;;;;;;5.32;3.10;;;;;;;;;;7793802;22;24853;-83
2024/03/12 10:29:16;;;;;;;5.18;3.03;;;;;;;;;;7794470;22;24423;-82
2024/03/12 10:32:20;;;;;;;8.60;3.15;;;;;;;;;;7794702;22;24362;-82
2024/03/12 10:35:22;;;;;;;5.18;2.45;;;;;;;;;;7795322;22;24435;-82
2024/03/12 10:38:27;;;;;;;3.92;2.40;;;;;;;;;;7795864;22;24424;-85
2024/03/12 10:41:29;;;;;;;6.00;3.58;;;;;;;;;;7794094;22;24576;-81
2024/03/12 10:44:32;;;;;;;4.70;2.70;;;;;;;;;;7795501;22;24370;-82
2024/03/12 10:47:36;;;;;;;5.70;2.30;;;;;;;;;;7796759;22;24370;-82
2024/03/12 10:50:40;;;;;;;5.30;2.45;;;;;;;;;;7795403;22;24378;-82
2024/03/12 10:53:46;;;;;;;3.92;2.20;;;;;;;;;;7795504;22;24501;-82
2024/03/12 10:56:48;;;;;;;5.47;2.83;;;;;;;;;;7794518;22;24382;-82
2024/03/12 10:59:50;;;;;;;3.70;2.17;;;;;;;;;;7794744;22;24420;-83
2024/03/12 11:02:54;;;;;;;4.70;2.63;;;;;;;;;;7794149;22;24394;-82
2024/03/12 11:05:57;;;;;;;3.88;2.13;;;;;;;;;;7794249;22;24481;-82
2024/03/12 11:08:59;;;;;;;3.30;2.28;;;;;;;;;;7793844;22;24386;-82
2024/03/12 11:12:03;;;;;;;3.60;2.30;;;;;;;;;;7793583;22;24397;-82
2024/03/12 11:15:08;;;;;;;5.17;2.30;;;;;;;;;;7793472;22;24455;-82
2024/03/12 11:18:12;;;;;;;2.67;2.10;;;;;;;;;;7793674;22;24798;-82
2024/03/12 11:21:18;;;;;;;3.10;1.95;;;;;;;;;;7793905;22;24385;-82
2024/03/12 11:24:27;;;;;;;4.55;2.50;;;;;;;;;;7794295;22;24397;-88
2024/03/12 11:27:28;;;;;;;2.88;1.60;;;;;;;;;;7794376;22;24759;-86
2024/03/12 11:30:31;;;;;;;3.97;1.63;;;;;;;;;;7794767;22;24436;-87
2024/03/12 11:33:46;;;;;;;2.70;1.55;;;;;;;;;;7794497;22;24378;-88
2024/03/12 11:36:48;;;;;;;2.53;1.35;;;;;;;;;;7797531;22;24567;-87
2024/03/12 11:40:27;;;;;;;5.55;1.40;;;;;;;;;;7799891;22;24390;-87
2024/03/12 11:43:37;;;;;;;2.63;1.25;;;;;;;;;;7796552;22;24760;-86
2024/03/12 11:46:44;;;;;;;2.83;1.07;;;;;;;;;;7797250;22;24826;-87
2024/03/12 11:49:48;;;;;;;3.25;1.30;;;;;;;;;;7796338;22;24390;-86
2024/03/12 11:52:51;;;;;;;2.10;1.30;;;;;;;;;;7797093;22;24354;-87
2024/03/12 11:55:57;;;;;;;2.03;1.20;;;;;;;;;;7796782;22;24424;-87
2024/03/12 11:59:01;;;;;;;2.67;1.10;;;;;;;;;;7797521;22;24381;-88
2024/03/12 12:02:02;;;;;;;1.73;1.00;;;;;;;;;;7796918;22;24370;-87
2024/03/12 12:05:09;;;;;;;4.25;1.15;;;;;;;;;;7794794;22;24444;-88
2024/03/12 12:08:11;;;;;;;3.67;1.10;;;;;;;;;;7795824;22;24366;-87
2024/03/12 12:11:12;;;;;;;3.22;0.95;;;;;;;;;;7796571;22;24370;-87
2024/03/12 12:14:14;;;;;;;2.45;0.88;;;;;;;;;;7796032;22;24378;-88
2024/03/12 12:17:21;;;;;;;4.38;1.23;;;;;;;;;;7796518;22;24539;-88
2024/03/12 12:20:26;;;;;;;3.10;0.90;;;;;;;;;;7795131;22;24432;-88
2024/03/12 12:23:28;;;;;;;1.00;0.70;;;;;;;;;;7796681;22;24374;-87
2024/03/12 12:26:30;;;;;;;0.30;0.20;;;;;;;;;;7795809;22;24783;-87
2024/03/12 12:29:33;;;;;;;1.23;0.27;;;;;;;;;;7795907;22;24558;-87
2024/03/12 12:32:37;;;;;;;1.52;0.50;;;;;;;;;;7795742;22;24493;-87
2024/03/12 12:35:41;;;;;;;3.83;0.63;;;;;;;;;;7796516;22;24416;-87
2024/03/12 12:38:43;;;;;;;0.60;0.30;;;;;;;;;;7797092;22;24728;-87
2024/03/12 12:41:45;;;;;;;1.27;0.30;;;;;;;;;;7794872;22;24776;-86
2024/03/12 12:44:51;;;;;;;1.15;0.30;;;;;;;;;;7795877;22;24763;-86
2024/03/12 12:47:52;;;;;;;1.23;0.30;;;;;;;;;;7795412;22;24378;-87
2024/03/12 12:50:57;;;;;;;0.52;0.20;;;;;;;;;;7795968;22;24382;-86
2024/03/12 12:54:02;;;;;;;0.73;0.20;;;;;;;;;;7794653;22;24366;-87
2024/03/12 12:57:04;;;;;;;1.17;0.43;;;;;;;;;;7795754;22;24374;-86
2024/03/12 13:00:18;;;;;;;3.20;0.50;;;;;;;;;;7795620;22;24444;-86
2024/03/12 13:03:20;;;;;;;1.30;0.35;;;;;;;;;;7795715;22;24402;-86
2024/03/12 13:06:24;;;;;;;1.10;0.30;;;;;;;;;;7795890;22;24381;-86
2024/03/12 13:09:29;;;;;;;0.80;0.30;;;;;;;;;;7795235;22;24386;-86
2024/03/12 13:12:31;;;;;;;2.80;0.50;;;;;;;;;;7796488;22;24432;-86
2024/03/12 13:15:35;;;;;;;9.90;6.85;;;;;;;;;;7797014;22;24428;-89
2024/03/12 13:18:37;;;;;;;14.55;10.25;;;;;;;;;;7796787;22;24378;-89
2024/03/12 13:21:40;;;;;;;3.60;2.67;;;;;;;;;;7795882;22;24443;-86
2024/03/12 13:24:43;;;;;;;0.60;0.30;;;;;;;;;;7795677;22;24689;-86
2024/03/12 13:27:45;;;;;;;0.57;0.30;;;;;;;;;;7795910;22;24378;-86
2024/03/12 13:30:47;;;;;;;2.97;0.40;;;;;;;;;;7794749;22;24378;-86
2024/03/12 13:33:48;;;;;;;1.67;0.50;;;;;;;;;;7795273;22;24454;-87
2024/03/12 13:36:51;;;;;;;2.15;0.90;;;;;;;;;;7795862;22;24378;-86
2024/03/12 13:39:53;;;;;;;1.93;0.33;;;;;;;;;;7796148;22;24374;-87
2024/03/12 13:42:54;;;;;;;1.40;0.30;;;;;;;;;;7795888;22;24385;-87
2024/03/12 13:45:57;;;;;;;1.03;0.20;;;;;;;;;;7795356;22;24437;-82
2024/03/12 13:49:11;;;;;;;1.23;0.30;;;;;;;;;;7794545;22;24384;-82
2024/03/12 13:52:14;;;;;;;0.68;0.30;;;;;;;;;;7794520;22;24421;-83
2024/03/12 13:55:16;;;;;;;0.37;0.20;;;;;;;;;;7794323;22;24397;-83
2024/03/12 13:58:19;;;;;;;0.68;0.40;;;;;;;;;;7793754;22;24428;-83
2024/03/12 14:01:22;;;;;;;0.83;0.30;;;;;;;;;;7794479;22;24627;-83
2024/03/12 14:04:26;;;;;;;2.80;0.50;;;;;;;;;;7793837;22;24474;-83
2024/03/12 14:07:29;;;;;;;2.17;0.50;;;;;;;;;;7795041;22;24386;-83
2024/03/12 14:10:32;;;;;;;1.08;0.40;;;;;;;;;;7793727;22;24390;-83
2024/03/12 14:13:34;;;;;;;0.40;0.30;;;;;;;;;;7794721;22;24810;-83
2024/03/12 14:16:36;;;;;;;0.28;0.20;;;;;;;;;;7794023;22;24417;-83
2024/03/12 14:19:38;;;;;;;0.60;0.30;;;;;;;;;;7794678;22;24806;-83
2024/03/12 14:22:43;;;;;;;1.17;0.50;;;;;;;;;;7792477;22;24770;-83
2024/03/12 14:25:45;;;;;;;0.65;0.30;;;;;;;;;;7791977;22;24604;-83
2024/03/12 14:28:47;;;;;;;0.47;0.30;;;;;;;;;;7794484;22;24584;-84
2024/03/12 14:31:48;;;;;;;1.08;0.40;;;;;;;;;;7767882;22;24539;-81
2024/03/12 14:34:51;;;;;;;1.35;0.30;;;;;;;;;;7791686;22;24407;-83
2024/03/12 14:37:55;;;;;;;0.88;0.30;;;;;;;;;;7794379;22;24461;-83
2024/03/12 14:40:57;;;;;;;3.60;0.40;;;;;;;;;;7794169;22;24373;-82
2024/03/12 14:43:59;;;;;;;2.22;0.65;;;;;;;;;;7794479;22;24455;-83
2024/03/12 14:47:02;;;;;;;2.75;0.43;;;;;;;;;;7793547;22;24381;-82
2024/03/12 14:50:05;;;;;;;2.47;0.30;;;;;;;;;;7793630;22;24421;-82
2024/03/12 14:53:08;;;;;;;1.40;0.40;;;;;;;;;;7795060;22;24736;-81
2024/03/12 14:56:10;;;;;;;3.25;0.50;;;;;;;;;;7795586;22;24423;-85
2024/03/12 14:59:12;;;;;;;0.38;0.30;;;;;;;;;;7794341;22;24380;-85
2024/03/12 15:02:15;;;;;;;0.90;0.35;;;;;;;;;;7794301;22;24548;-85
2024/03/12 15:05:20;;;;;;;1.73;0.40;;;;;;;;;;7794095;22;24381;-86
2024/03/12 15:08:23;;;;;;;1.23;0.60;;;;;;;;;;7794791;22;24536;-86
2024/03/12 15:11:25;;;;;;;1.20;0.80;;;;;;;;;;7793467;22;24384;-86
2024/03/12 15:14:27;;;;;;;3.35;1.85;;;;;;;;;;7795428;22;24436;-86
2024/03/12 15:17:29;;;;;;;22.77;16.80;;;;;;;;;;7794918;22;24950;-91
2024/03/12 15:20:31;;;;;;;1.80;0.60;;;;;;;;;;7793293;22;24579;-85
2024/03/12 15:23:34;;;;;;;1.02;0.50;;;;;;;;;;7792764;22;24444;-85
2024/03/12 15:26:35;;;;;;;3.55;0.70;;;;;;;;;;7793057;22;24693;-85
2024/03/12 15:29:37;;;;;;;0.70;0.50;;;;;;;;;;7793500;22;24459;-85
2024/03/12 15:32:39;;;;;;;0.32;0.30;;;;;;;;;;7793280;22;24377;-86
2024/03/12 15:35:41;;;;;;;1.10;0.30;;;;;;;;;;7793430;22;24397;-86
2024/03/12 15:38:44;;;;;;;1.90;0.67;;;;;;;;;;7793286;22;24623;-86
2024/03/12 15:41:46;;;;;;;1.92;0.47;;;;;;;;;;7792244;22;24428;-84
2024/03/12 15:44:48;;;;;;;21.92;12.43;;;;;;;;;;7807065;22;24827;-96
2024/03/12 15:47:52;;;;;;;7.90;5.88;;;;;;;;;;7812905;22;24444;-96
2024/03/12 15:50:54;;;;;;;28.13;20.70;;;;;;;;;;7809042;22;24436;-96
2024/03/12 15:53:57;;;;;;;34.30;24.98;;;;;;;;;;7807060;22;24374;-96
2024/03/12 15:56:59;;;;;;;13.73;8.80;;;;;;;;;;7808747;22;24402;-95
2024/03/12 16:00:03;;;;;;;2.27;0.60;;;;;;;;;;7813167;22;24373;-96
2024/03/12 16:03:06;;;;;;;2.42;0.50;;;;;;;;;;7809107;22;24457;-93
2024/03/12 16:06:07;;;;;;;5.30;3.78;;;;;;;;;;7793292;22;24841;-82
2024/03/12 16:09:14;;;;;;;1.35;0.50;;;;;;;;;;7791897;22;24373;-82
2024/03/12 16:12:15;;;;;;;6.73;3.73;;;;;;;;;;7791944;22;24432;-82
2024/03/12 16:15:18;;;;;;;3.10;1.52;;;;;;;;;;7792346;22;24643;-81
2024/03/12 16:18:21;;;;;;;1.25;0.90;;;;;;;;;;7791808;22;24382;-81
2024/03/12 16:21:22;;;;;;;1.20;0.30;;;;;;;;;;7792678;22;24394;-82
2024/03/12 16:24:26;;;;;;;1.10;0.30;;;;;;;;;;7793711;22;24766;-83
2024/03/12 16:27:28;;;;;;;1.35;0.45;;;;;;;;;;7794296;22;24405;-82
2024/03/12 16:30:29;;;;;;;1.87;1.50;;;;;;;;;;7793454;22;24997;-81
2024/03/12 16:33:31;;;;;;;3.72;2.10;;;;;;;;;;7794029;22;24374;-82
2024/03/12 16:36:32;;;;;;;0.80;0.50;;;;;;;;;;7794646;22;24490;-81
2024/03/12 16:39:38;;;;;;;3.03;1.00;;;;;;;;;;7792943;22;24436;-83
2024/03/12 16:42:40;;;;;;;1.05;0.50;;;;;;;;;;7792510;22;24404;-81
2024/03/12 16:45:42;;;;;;;1.67;0.43;;;;;;;;;;7792152;22;24401;-82
2024/03/12 16:48:44;;;;;;;1.47;0.50;;;;;;;;;;7794095;22;24382;-81
2024/03/12 16:51:48;;;;;;;0.82;0.40;;;;;;;;;;7792241;22;24370;-82
2024/03/12 16:54:52;;;;;;;0.75;0.40;;;;;;;;;;7795207;22;24576;-82
2024/03/12 16:57:54;;;;;;;0.45;0.30;;;;;;;;;;7794580;22;24374;-82
2024/03/12 17:00:58;;;;;;;2.00;0.60;;;;;;;;;;7791889;22;24751;-82
2024/03/12 17:04:00;;;;;;;0.50;0.30;;;;;;;;;;7794744;22;24413;-83
2024/03/12 17:07:07;;;;;;;1.42;0.43;;;;;;;;;;7794593;22;24899;-82
2024/03/12 17:10:13;;;;;;;1.20;0.40;;;;;;;;;;7795508;22;24433;-82
2024/03/12 17:13:16;;;;;;;0.95;0.30;;;;;;;;;;7794359;22;24432;-85
2024/03/12 17:16:19;;;;;;;2.65;0.98;;;;;;;;;;7794279;22;24377;-85
2024/03/12 17:19:22;;;;;;;1.90;0.70;;;;;;;;;;7794737;22;24378;-85
2024/03/12 17:22:25;;;;;;;1.10;0.57;;;;;;;;;;7794495;22;24463;-86
2024/03/12 17:25:28;;;;;;;1.05;0.70;;;;;;;;;;7794155;22;24382;-85
2024/03/12 17:28:31;;;;;;;1.30;0.70;;;;;;;;;;7795085;22;24378;-86
2024/03/12 17:31:33;;;;;;;3.17;0.90;;;;;;;;;;7794296;22;24398;-84
2024/03/12 17:34:35;;;;;;;2.33;0.80;;;;;;;;;;7794670;22;24405;-85
2024/03/12 17:37:39;;;;;;;1.77;0.90;;;;;;;;;;7794422;22;24405;-85
2024/03/12 17:40:46;;;;;;;1.88;0.70;;;;;;;;;;7794504;22;24382;-86
2024/03/12 17:43:48;;;;;;;1.83;0.70;;;;;;;;;;7792940;22;24461;-85
2024/03/12 17:46:54;;;;;;;1.40;0.80;;;;;;;;;;7793944;22;24711;-86
2024/03/12 17:49:57;;;;;;;0.90;0.60;;;;;;;;;;7793720;22;24986;-86
2024/03/12 17:53:00;;;;;;;1.73;0.98;;;;;;;;;;7793015;22;24539;-85
2024/03/12 17:56:04;;;;;;;1.92;1.00;;;;;;;;;;7793072;22;24437;-85
2024/03/12 17:59:12;;;;;;;4.63;0.90;;;;;;;;;;7789216;22;24557;-85
2024/03/12 18:02:14;;;;;;;1.98;0.90;;;;;;;;;;7787966;22;24392;-86
2024/03/12 18:05:20;;;;;;;3.17;1.40;;;;;;;;;;7790658;22;24420;-85
2024/03/12 18:08:26;;;;;;;3.55;1.23;;;;;;;;;;7788288;22;24366;-85
2024/03/12 18:11:30;;;;;;;1.98;1.20;;;;;;;;;;7788882;22;24436;-85
2024/03/12 18:14:32;;;;;;;2.92;1.30;;;;;;;;;;7788303;22;24401;-85